sensor_id;sensor_type;location;lat;lon;timestamp;P1;durP1;ratioP1;P2;durP2;ratioP2
50309;SDS011;36207;51.850;21.698;2023-05-16T00:01:14;13.00;;;8.80;;
50309;SDS011;36207;51.850;21.698;2023-05-16T00:03:41;11.30;;;8.50;;
50309;SDS011;36207;51.850;21.698;2023-05-16T00:06:08;10.90;;;8.40;;
50309;SDS011;36207;51.850;21.698;2023-05-16T00:08:34;12.20;;;8.60;;
50309;SDS011;36207;51.850;21.698;2023-05-16T00:11:00;14.00;;;9.00;;
50309;SDS011;36207;51.850;21.698;2023-05-16T00:13:27;14.20;;;8.20;;
50309;SDS011;36207;51.850;21.698;2023-05-16T00:15:54;12.30;;;8.50;;
50309;SDS011;36207;51.850;21.698;2023-05-16T00:18:21;12.20;;;8.40;;
50309;SDS011;36207;51.850;21.698;2023-05-16T00:20:47;10.20;;;8.20;;
50309;SDS011;36207;51.850;21.698;2023-05-16T00:23:14;10.00;;;8.20;;
50309;SDS011;36207;51.850;21.698;2023-05-16T00:25:41;11.40;;;8.50;;
50309;SDS011;36207;51.850;21.698;2023-05-16T00:28:07;10.80;;;8.20;;
50309;SDS011;36207;51.850;21.698;2023-05-16T00:30:34;11.70;;;7.90;;
50309;SDS011;36207;51.850;21.698;2023-05-16T00:33:00;11.50;;;8.00;;
50309;SDS011;36207;51.850;21.698;2023-05-16T00:35:27;14.90;;;8.30;;
50309;SDS011;36207;51.850;21.698;2023-05-16T00:37:53;13.20;;;8.40;;
50309;SDS011;36207;51.850;21.698;2023-05-16T00:40:19;12.00;;;8.30;;
50309;SDS011;36207;51.850;21.698;2023-05-16T00:42:45;11.20;;;8.00;;
50309;SDS011;36207;51.850;21.698;2023-05-16T00:45:10;13.90;;;7.70;;
50309;SDS011;36207;51.850;21.698;2023-05-16T00:47:37;11.60;;;7.90;;
50309;SDS011;36207;51.850;21.698;2023-05-16T00:50:03;9.80;;;7.50;;
50309;SDS011;36207;51.850;21.698;2023-05-16T00:52:30;11.00;;;8.20;;
50309;SDS011;36207;51.850;21.698;2023-05-16T00:54:58;11.40;;;7.70;;
50309;SDS011;36207;51.850;21.698;2023-05-16T00:57:24;10.20;;;7.00;;
50309;SDS011;36207;51.850;21.698;2023-05-16T00:59:50;12.40;;;7.60;;
50309;SDS011;36207;51.850;21.698;2023-05-16T01:02:17;10.80;;;7.70;;
50309;SDS011;36207;51.850;21.698;2023-05-16T01:04:42;11.20;;;7.40;;
50309;SDS011;36207;51.850;21.698;2023-05-16T01:07:09;10.30;;;7.90;;
50309;SDS011;36207;51.850;21.698;2023-05-16T01:09:35;12.30;;;7.60;;
50309;SDS011;36207;51.850;21.698;2023-05-16T01:28:10;9.20;;;6.80;;
50309;SDS011;36207;51.850;21.698;2023-05-16T01:30:41;11.40;;;7.70;;
50309;SDS011;36207;51.850;21.698;2023-05-16T01:33:07;10.30;;;7.40;;
50309;SDS011;36207;51.850;21.698;2023-05-16T01:35:34;9.30;;;7.30;;
50309;SDS011;36207;51.850;21.698;2023-05-16T01:38:15;10.60;;;7.40;;
50309;SDS011;36207;51.850;21.698;2023-05-16T01:40:53;11.40;;;7.80;;
50309;SDS011;36207;51.850;21.698;2023-05-16T01:43:28;10.90;;;8.00;;
50309;SDS011;36207;51.850;21.698;2023-05-16T01:46:03;10.40;;;7.90;;
50309;SDS011;36207;51.850;21.698;2023-05-16T01:48:43;9.40;;;7.70;;
50309;SDS011;36207;51.850;21.698;2023-05-16T01:51:27;10.30;;;7.30;;
50309;SDS011;36207;51.850;21.698;2023-05-16T01:53:58;12.00;;;7.70;;
50309;SDS011;36207;51.850;21.698;2023-05-16T01:56:30;9.70;;;7.40;;
50309;SDS011;36207;51.850;21.698;2023-05-16T01:58:57;13.60;;;7.70;;
50309;SDS011;36207;51.850;21.698;2023-05-16T02:01:25;9.60;;;7.50;;
50309;SDS011;36207;51.850;21.698;2023-05-16T02:03:51;10.00;;;7.30;;
50309;SDS011;36207;51.850;21.698;2023-05-16T02:06:17;11.00;;;7.10;;
50309;SDS011;36207;51.850;21.698;2023-05-16T02:08:43;13.10;;;7.50;;
50309;SDS011;36207;51.850;21.698;2023-05-16T02:11:09;10.30;;;7.40;;
50309;SDS011;36207;51.850;21.698;2023-05-16T02:13:35;11.70;;;6.90;;
50309;SDS011;36207;51.850;21.698;2023-05-16T02:16:01;8.30;;;6.40;;
50309;SDS011;36207;51.850;21.698;2023-05-16T02:18:26;8.90;;;6.60;;
50309;SDS011;36207;51.850;21.698;2023-05-16T02:20:52;10.00;;;7.10;;
50309;SDS011;36207;51.850;21.698;2023-05-16T02:23:19;9.20;;;7.30;;
50309;SDS011;36207;51.850;21.698;2023-05-16T02:25:45;8.10;;;6.50;;
50309;SDS011;36207;51.850;21.698;2023-05-16T02:28:11;8.50;;;6.50;;
50309;SDS011;36207;51.850;21.698;2023-05-16T02:30:37;9.00;;;6.70;;
50309;SDS011;36207;51.850;21.698;2023-05-16T02:33:03;9.90;;;6.70;;
50309;SDS011;36207;51.850;21.698;2023-05-16T02:35:29;8.40;;;6.40;;
50309;SDS011;36207;51.850;21.698;2023-05-16T02:37:55;9.10;;;7.10;;
50309;SDS011;36207;51.850;21.698;2023-05-16T02:40:21;8.30;;;6.30;;
50309;SDS011;36207;51.850;21.698;2023-05-16T02:42:47;10.20;;;6.40;;
50309;SDS011;36207;51.850;21.698;2023-05-16T02:45:13;10.80;;;6.50;;
50309;SDS011;36207;51.850;21.698;2023-05-16T02:47:39;9.20;;;6.50;;
50309;SDS011;36207;51.850;21.698;2023-05-16T02:50:05;9.30;;;6.60;;
50309;SDS011;36207;51.850;21.698;2023-05-16T02:52:31;11.50;;;6.30;;
50309;SDS011;36207;51.850;21.698;2023-05-16T02:54:57;8.70;;;6.20;;
50309;SDS011;36207;51.850;21.698;2023-05-16T02:57:23;8.10;;;6.20;;
50309;SDS011;36207;51.850;21.698;2023-05-16T02:59:49;12.70;;;6.90;;
50309;SDS011;36207;51.850;21.698;2023-05-16T03:02:15;10.90;;;6.60;;
50309;SDS011;36207;51.850;21.698;2023-05-16T03:04:41;9.10;;;6.70;;
50309;SDS011;36207;51.850;21.698;2023-05-16T03:07:07;12.30;;;6.60;;
50309;SDS011;36207;51.850;21.698;2023-05-16T03:09:33;9.00;;;6.10;;
50309;SDS011;36207;51.850;21.698;2023-05-16T03:11:58;9.50;;;6.40;;
50309;SDS011;36207;51.850;21.698;2023-05-16T03:14:24;10.00;;;6.50;;
50309;SDS011;36207;51.850;21.698;2023-05-16T03:16:50;10.50;;;6.50;;
50309;SDS011;36207;51.850;21.698;2023-05-16T03:19:16;9.20;;;6.40;;
50309;SDS011;36207;51.850;21.698;2023-05-16T03:21:42;8.80;;;6.40;;
50309;SDS011;36207;51.850;21.698;2023-05-16T03:24:08;8.90;;;6.20;;
50309;SDS011;36207;51.850;21.698;2023-05-16T03:26:35;10.20;;;6.70;;
50309;SDS011;36207;51.850;21.698;2023-05-16T03:29:01;8.40;;;6.20;;
50309;SDS011;36207;51.850;21.698;2023-05-16T03:31:27;10.70;;;6.30;;
50309;SDS011;36207;51.850;21.698;2023-05-16T03:33:53;7.60;;;6.20;;
50309;SDS011;36207;51.850;21.698;2023-05-16T03:36:22;8.20;;;6.00;;
50309;SDS011;36207;51.850;21.698;2023-05-16T03:38:49;8.70;;;6.30;;
50309;SDS011;36207;51.850;21.698;2023-05-16T03:41:15;9.10;;;6.50;;
50309;SDS011;36207;51.850;21.698;2023-05-16T03:43:41;9.30;;;6.60;;
50309;SDS011;36207;51.850;21.698;2023-05-16T03:46:07;8.70;;;5.90;;
50309;SDS011;36207;51.850;21.698;2023-05-16T03:48:33;8.40;;;6.00;;
50309;SDS011;36207;51.850;21.698;2023-05-16T03:50:59;8.90;;;6.30;;
50309;SDS011;36207;51.850;21.698;2023-05-16T03:53:25;9.50;;;6.40;;
50309;SDS011;36207;51.850;21.698;2023-05-16T03:55:51;8.90;;;6.30;;
50309;SDS011;36207;51.850;21.698;2023-05-16T03:58:16;8.70;;;6.10;;
50309;SDS011;36207;51.850;21.698;2023-05-16T04:00:42;9.80;;;5.80;;
50309;SDS011;36207;51.850;21.698;2023-05-16T04:03:10;7.90;;;5.70;;
50309;SDS011;36207;51.850;21.698;2023-05-16T04:05:36;7.90;;;5.80;;
50309;SDS011;36207;51.850;21.698;2023-05-16T04:08:02;9.10;;;5.90;;
50309;SDS011;36207;51.850;21.698;2023-05-16T04:10:28;7.40;;;5.50;;
50309;SDS011;36207;51.850;21.698;2023-05-16T04:12:55;8.10;;;5.60;;
50309;SDS011;36207;51.850;21.698;2023-05-16T04:15:20;7.90;;;5.80;;
50309;SDS011;36207;51.850;21.698;2023-05-16T04:17:47;8.90;;;5.70;;
50309;SDS011;36207;51.850;21.698;2023-05-16T04:20:12;10.10;;;5.90;;
50309;SDS011;36207;51.850;21.698;2023-05-16T04:22:38;8.80;;;6.10;;
50309;SDS011;36207;51.850;21.698;2023-05-16T04:25:04;8.50;;;5.90;;
50309;SDS011;36207;51.850;21.698;2023-05-16T04:27:31;8.00;;;5.40;;
50309;SDS011;36207;51.850;21.698;2023-05-16T04:29:57;7.90;;;5.70;;
50309;SDS011;36207;51.850;21.698;2023-05-16T04:32:24;8.70;;;5.90;;
50309;SDS011;36207;51.850;21.698;2023-05-16T04:34:50;8.40;;;5.80;;
50309;SDS011;36207;51.850;21.698;2023-05-16T04:37:18;8.90;;;5.70;;
50309;SDS011;36207;51.850;21.698;2023-05-16T04:39:45;8.60;;;5.70;;
50309;SDS011;36207;51.850;21.698;2023-05-16T04:42:11;8.60;;;5.60;;
50309;SDS011;36207;51.850;21.698;2023-05-16T04:44:38;8.40;;;6.10;;
50309;SDS011;36207;51.850;21.698;2023-05-16T04:47:04;10.40;;;6.50;;
50309;SDS011;36207;51.850;21.698;2023-05-16T04:49:30;9.10;;;6.50;;
50309;SDS011;36207;51.850;21.698;2023-05-16T04:51:56;10.70;;;6.20;;
50309;SDS011;36207;51.850;21.698;2023-05-16T04:54:22;10.50;;;6.30;;
50309;SDS011;36207;51.850;21.698;2023-05-16T04:56:48;9.70;;;6.40;;
50309;SDS011;36207;51.850;21.698;2023-05-16T04:59:14;10.60;;;6.60;;
50309;SDS011;36207;51.850;21.698;2023-05-16T05:01:40;9.50;;;6.30;;
50309;SDS011;36207;51.850;21.698;2023-05-16T05:04:06;11.20;;;6.60;;
50309;SDS011;36207;51.850;21.698;2023-05-16T05:06:32;10.30;;;6.00;;
50309;SDS011;36207;51.850;21.698;2023-05-16T05:08:58;8.70;;;6.50;;
50309;SDS011;36207;51.850;21.698;2023-05-16T05:11:24;10.30;;;6.50;;
50309;SDS011;36207;51.850;21.698;2023-05-16T05:13:51;8.80;;;6.80;;
50309;SDS011;36207;51.850;21.698;2023-05-16T05:16:17;9.70;;;6.40;;
50309;SDS011;36207;51.850;21.698;2023-05-16T05:18:43;8.60;;;6.20;;
50309;SDS011;36207;51.850;21.698;2023-05-16T05:21:09;9.40;;;6.30;;
50309;SDS011;36207;51.850;21.698;2023-05-16T05:23:35;9.30;;;6.50;;
50309;SDS011;36207;51.850;21.698;2023-05-16T05:26:01;9.70;;;6.40;;
50309;SDS011;36207;51.850;21.698;2023-05-16T05:28:27;8.70;;;6.40;;
50309;SDS011;36207;51.850;21.698;2023-05-16T05:30:52;9.10;;;6.30;;
50309;SDS011;36207;51.850;21.698;2023-05-16T05:33:18;9.50;;;6.30;;
50309;SDS011;36207;51.850;21.698;2023-05-16T05:35:44;10.50;;;6.70;;
50309;SDS011;36207;51.850;21.698;2023-05-16T05:38:10;10.60;;;7.00;;
50309;SDS011;36207;51.850;21.698;2023-05-16T05:40:36;8.80;;;6.40;;
50309;SDS011;36207;51.850;21.698;2023-05-16T05:43:02;8.80;;;6.40;;
50309;SDS011;36207;51.850;21.698;2023-05-16T05:45:28;8.80;;;6.20;;
50309;SDS011;36207;51.850;21.698;2023-05-16T05:47:53;10.70;;;6.80;;
50309;SDS011;36207;51.850;21.698;2023-05-16T05:50:19;11.30;;;6.20;;
50309;SDS011;36207;51.850;21.698;2023-05-16T05:52:45;9.50;;;6.80;;
50309;SDS011;36207;51.850;21.698;2023-05-16T05:55:11;9.20;;;6.40;;
50309;SDS011;36207;51.850;21.698;2023-05-16T05:57:37;8.70;;;6.30;;
50309;SDS011;36207;51.850;21.698;2023-05-16T06:00:04;9.90;;;6.40;;
50309;SDS011;36207;51.850;21.698;2023-05-16T06:02:31;9.20;;;6.50;;
50309;SDS011;36207;51.850;21.698;2023-05-16T06:04:58;10.70;;;6.70;;
50309;SDS011;36207;51.850;21.698;2023-05-16T06:07:24;10.10;;;6.60;;
50309;SDS011;36207;51.850;21.698;2023-05-16T06:09:50;8.30;;;6.40;;
50309;SDS011;36207;51.850;21.698;2023-05-16T06:12:17;9.30;;;6.20;;
50309;SDS011;36207;51.850;21.698;2023-05-16T06:14:43;10.90;;;6.90;;
50309;SDS011;36207;51.850;21.698;2023-05-16T06:17:09;11.30;;;6.50;;
50309;SDS011;36207;51.850;21.698;2023-05-16T06:19:35;9.20;;;6.80;;
50309;SDS011;36207;51.850;21.698;2023-05-16T06:22:01;8.50;;;6.00;;
50309;SDS011;36207;51.850;21.698;2023-05-16T06:24:27;9.00;;;6.00;;
50309;SDS011;36207;51.850;21.698;2023-05-16T06:26:54;10.50;;;6.50;;
50309;SDS011;36207;51.850;21.698;2023-05-16T06:29:20;9.20;;;6.70;;
50309;SDS011;36207;51.850;21.698;2023-05-16T06:31:46;7.90;;;6.20;;
50309;SDS011;36207;51.850;21.698;2023-05-16T06:34:12;9.40;;;5.90;;
50309;SDS011;36207;51.850;21.698;2023-05-16T06:36:38;9.80;;;6.50;;
50309;SDS011;36207;51.850;21.698;2023-05-16T06:39:03;12.00;;;6.20;;
50309;SDS011;36207;51.850;21.698;2023-05-16T06:41:29;11.50;;;5.60;;
50309;SDS011;36207;51.850;21.698;2023-05-16T06:43:55;9.90;;;5.70;;
50309;SDS011;36207;51.850;21.698;2023-05-16T06:46:21;7.50;;;5.80;;
50309;SDS011;36207;51.850;21.698;2023-05-16T06:48:47;8.00;;;6.20;;
50309;SDS011;36207;51.850;21.698;2023-05-16T06:51:13;8.90;;;6.50;;
50309;SDS011;36207;51.850;21.698;2023-05-16T06:53:39;8.70;;;5.80;;
50309;SDS011;36207;51.850;21.698;2023-05-16T06:56:05;9.00;;;5.90;;
50309;SDS011;36207;51.850;21.698;2023-05-16T06:58:31;8.90;;;5.90;;
50309;SDS011;36207;51.850;21.698;2023-05-16T07:00:57;8.10;;;5.80;;
50309;SDS011;36207;51.850;21.698;2023-05-16T07:03:23;11.40;;;6.40;;
50309;SDS011;36207;51.850;21.698;2023-05-16T07:05:49;9.00;;;5.90;;
50309;SDS011;36207;51.850;21.698;2023-05-16T07:08:17;7.40;;;5.90;;
50309;SDS011;36207;51.850;21.698;2023-05-16T07:10:46;8.50;;;5.90;;
50309;SDS011;36207;51.850;21.698;2023-05-16T07:13:12;9.10;;;6.30;;
50309;SDS011;36207;51.850;21.698;2023-05-16T07:15:38;14.50;;;6.40;;
50309;SDS011;36207;51.850;21.698;2023-05-16T07:18:04;9.20;;;6.50;;
50309;SDS011;36207;51.850;21.698;2023-05-16T07:20:30;10.40;;;6.50;;
50309;SDS011;36207;51.850;21.698;2023-05-16T07:22:56;9.30;;;6.20;;
50309;SDS011;36207;51.850;21.698;2023-05-16T07:25:23;8.50;;;6.30;;
50309;SDS011;36207;51.850;21.698;2023-05-16T07:27:50;9.20;;;6.30;;
50309;SDS011;36207;51.850;21.698;2023-05-16T07:30:16;8.90;;;6.20;;
50309;SDS011;36207;51.850;21.698;2023-05-16T07:32:42;9.20;;;6.10;;
50309;SDS011;36207;51.850;21.698;2023-05-16T07:35:08;12.90;;;6.80;;
50309;SDS011;36207;51.850;21.698;2023-05-16T07:37:34;8.50;;;6.80;;
50309;SDS011;36207;51.850;21.698;2023-05-16T07:40:00;8.40;;;6.40;;
50309;SDS011;36207;51.850;21.698;2023-05-16T07:42:28;8.50;;;6.60;;
50309;SDS011;36207;51.850;21.698;2023-05-16T07:44:54;10.80;;;6.40;;
50309;SDS011;36207;51.850;21.698;2023-05-16T07:47:21;9.30;;;6.40;;
50309;SDS011;36207;51.850;21.698;2023-05-16T07:49:47;9.70;;;6.50;;
50309;SDS011;36207;51.850;21.698;2023-05-16T07:52:14;10.30;;;6.50;;
50309;SDS011;36207;51.850;21.698;2023-05-16T07:54:40;8.80;;;6.10;;
50309;SDS011;36207;51.850;21.698;2023-05-16T07:57:05;8.20;;;5.70;;
50309;SDS011;36207;51.850;21.698;2023-05-16T07:59:31;10.20;;;6.70;;
50309;SDS011;36207;51.850;21.698;2023-05-16T08:01:57;10.20;;;6.40;;
50309;SDS011;36207;51.850;21.698;2023-05-16T08:04:23;8.60;;;6.30;;
50309;SDS011;36207;51.850;21.698;2023-05-16T08:06:50;9.20;;;6.70;;
50309;SDS011;36207;51.850;21.698;2023-05-16T08:09:16;10.00;;;5.80;;
50309;SDS011;36207;51.850;21.698;2023-05-16T08:11:42;7.90;;;5.60;;
50309;SDS011;36207;51.850;21.698;2023-05-16T08:14:10;8.10;;;5.60;;
50309;SDS011;36207;51.850;21.698;2023-05-16T08:16:36;7.90;;;5.70;;
50309;SDS011;36207;51.850;21.698;2023-05-16T08:19:02;7.50;;;5.50;;
50309;SDS011;36207;51.850;21.698;2023-05-16T08:21:28;6.60;;;5.20;;
50309;SDS011;36207;51.850;21.698;2023-05-16T08:23:56;8.50;;;5.50;;
50309;SDS011;36207;51.850;21.698;2023-05-16T08:26:22;6.80;;;5.30;;
50309;SDS011;36207;51.850;21.698;2023-05-16T08:28:48;6.00;;;5.10;;
50309;SDS011;36207;51.850;21.698;2023-05-16T08:31:15;8.70;;;5.00;;
50309;SDS011;36207;51.850;21.698;2023-05-16T08:33:41;9.30;;;5.70;;
50309;SDS011;36207;51.850;21.698;2023-05-16T08:36:10;8.30;;;5.40;;
50309;SDS011;36207;51.850;21.698;2023-05-16T08:38:36;7.20;;;5.10;;
50309;SDS011;36207;51.850;21.698;2023-05-16T08:41:01;7.20;;;5.40;;
50309;SDS011;36207;51.850;21.698;2023-05-16T08:43:27;7.70;;;5.50;;
50309;SDS011;36207;51.850;21.698;2023-05-16T08:45:54;7.80;;;5.40;;
50309;SDS011;36207;51.850;21.698;2023-05-16T08:48:22;9.70;;;5.70;;
50309;SDS011;36207;51.850;21.698;2023-05-16T08:50:48;8.90;;;5.60;;
50309;SDS011;36207;51.850;21.698;2023-05-16T08:53:16;8.20;;;5.60;;
50309;SDS011;36207;51.850;21.698;2023-05-16T08:55:46;8.30;;;5.40;;
50309;SDS011;36207;51.850;21.698;2023-05-16T08:58:14;7.80;;;5.30;;
50309;SDS011;36207;51.850;21.698;2023-05-16T09:00:41;7.30;;;5.00;;
50309;SDS011;36207;51.850;21.698;2023-05-16T09:03:07;6.80;;;4.90;;
50309;SDS011;36207;51.850;21.698;2023-05-16T09:05:34;7.40;;;5.30;;
50309;SDS011;36207;51.850;21.698;2023-05-16T09:08:01;7.90;;;5.60;;
50309;SDS011;36207;51.850;21.698;2023-05-16T09:10:27;6.50;;;5.40;;
50309;SDS011;36207;51.850;21.698;2023-05-16T09:12:53;6.00;;;5.00;;
50309;SDS011;36207;51.850;21.698;2023-05-16T09:15:19;6.40;;;4.80;;
50309;SDS011;36207;51.850;21.698;2023-05-16T09:17:47;8.00;;;5.20;;
50309;SDS011;36207;51.850;21.698;2023-05-16T09:20:15;8.90;;;4.70;;
50309;SDS011;36207;51.850;21.698;2023-05-16T09:22:56;7.70;;;5.10;;
50309;SDS011;36207;51.850;21.698;2023-05-16T09:25:24;6.30;;;4.90;;
50309;SDS011;36207;51.850;21.698;2023-05-16T09:27:54;8.00;;;5.20;;
50309;SDS011;36207;51.850;21.698;2023-05-16T09:30:28;7.00;;;5.40;;
50309;SDS011;36207;51.850;21.698;2023-05-16T09:32:55;7.80;;;4.90;;
50309;SDS011;36207;51.850;21.698;2023-05-16T09:35:22;6.00;;;5.20;;
50309;SDS011;36207;51.850;21.698;2023-05-16T09:37:49;8.60;;;5.30;;
50309;SDS011;36207;51.850;21.698;2023-05-16T09:40:23;7.80;;;5.20;;
50309;SDS011;36207;51.850;21.698;2023-05-16T09:43:03;7.30;;;5.30;;
50309;SDS011;36207;51.850;21.698;2023-05-16T09:45:32;8.40;;;5.40;;
50309;SDS011;36207;51.850;21.698;2023-05-16T09:48:06;7.60;;;4.90;;
50309;SDS011;36207;51.850;21.698;2023-05-16T09:50:35;7.90;;;5.00;;
50309;SDS011;36207;51.850;21.698;2023-05-16T09:53:02;6.50;;;5.10;;
50309;SDS011;36207;51.850;21.698;2023-05-16T09:55:29;6.50;;;5.00;;
50309;SDS011;36207;51.850;21.698;2023-05-16T09:57:56;7.20;;;5.10;;
50309;SDS011;36207;51.850;21.698;2023-05-16T10:00:22;6.80;;;5.30;;
50309;SDS011;36207;51.850;21.698;2023-05-16T10:02:55;8.30;;;5.60;;
50309;SDS011;36207;51.850;21.698;2023-05-16T10:05:25;6.40;;;5.40;;
50309;SDS011;36207;51.850;21.698;2023-05-16T10:07:55;7.50;;;5.30;;
50309;SDS011;36207;51.850;21.698;2023-05-16T10:10:23;6.30;;;5.30;;
50309;SDS011;36207;51.850;21.698;2023-05-16T10:12:52;6.20;;;4.90;;
50309;SDS011;36207;51.850;21.698;2023-05-16T10:15:23;8.80;;;5.50;;
50309;SDS011;36207;51.850;21.698;2023-05-16T10:17:50;6.40;;;5.30;;
50309;SDS011;36207;51.850;21.698;2023-05-16T10:20:17;10.60;;;5.60;;
50309;SDS011;36207;51.850;21.698;2023-05-16T10:22:45;8.10;;;5.60;;
50309;SDS011;36207;51.850;21.698;2023-05-16T10:25:14;7.60;;;5.50;;
50309;SDS011;36207;51.850;21.698;2023-05-16T10:27:50;9.30;;;5.60;;
50309;SDS011;36207;51.850;21.698;2023-05-16T10:30:17;7.20;;;5.80;;
50309;SDS011;36207;51.850;21.698;2023-05-16T10:32:44;7.30;;;5.50;;
50309;SDS011;36207;51.850;21.698;2023-05-16T10:35:11;8.10;;;5.60;;
50309;SDS011;36207;51.850;21.698;2023-05-16T10:37:37;6.50;;;5.50;;
50309;SDS011;36207;51.850;21.698;2023-05-16T10:40:04;7.60;;;5.90;;
50309;SDS011;36207;51.850;21.698;2023-05-16T10:42:32;7.50;;;5.60;;
50309;SDS011;36207;51.850;21.698;2023-05-16T10:45:08;7.90;;;5.50;;
50309;SDS011;36207;51.850;21.698;2023-05-16T10:47:49;6.90;;;5.30;;
50309;SDS011;36207;51.850;21.698;2023-05-16T10:50:29;7.00;;;5.60;;
50309;SDS011;36207;51.850;21.698;2023-05-16T10:58:38;6.50;;;5.70;;
50309;SDS011;36207;51.850;21.698;2023-05-16T11:06:22;7.60;;;5.40;;
50309;SDS011;36207;51.850;21.698;2023-05-16T11:11:53;7.90;;;6.10;;
50309;SDS011;36207;51.850;21.698;2023-05-16T11:14:21;7.20;;;5.40;;
50309;SDS011;36207;51.850;21.698;2023-05-16T11:17:00;7.90;;;5.90;;
50309;SDS011;36207;51.850;21.698;2023-05-16T11:19:29;8.40;;;5.70;;
50309;SDS011;36207;51.850;21.698;2023-05-16T11:24:37;7.80;;;6.20;;
50309;SDS011;36207;51.850;21.698;2023-05-16T11:27:04;7.50;;;6.00;;
50309;SDS011;36207;51.850;21.698;2023-05-16T11:29:32;7.30;;;6.00;;
50309;SDS011;36207;51.850;21.698;2023-05-16T11:32:02;6.40;;;5.50;;
50309;SDS011;36207;51.850;21.698;2023-05-16T11:34:30;6.60;;;5.70;;
50309;SDS011;36207;51.850;21.698;2023-05-16T11:36:57;7.90;;;5.80;;
50309;SDS011;36207;51.850;21.698;2023-05-16T11:39:24;6.40;;;5.70;;
50309;SDS011;36207;51.850;21.698;2023-05-16T11:41:51;7.70;;;5.70;;
50309;SDS011;36207;51.850;21.698;2023-05-16T11:44:18;8.20;;;5.60;;
50309;SDS011;36207;51.850;21.698;2023-05-16T11:46:44;10.10;;;5.80;;
50309;SDS011;36207;51.850;21.698;2023-05-16T11:49:11;7.60;;;5.60;;
50309;SDS011;36207;51.850;21.698;2023-05-16T11:51:37;7.90;;;5.70;;
50309;SDS011;36207;51.850;21.698;2023-05-16T11:54:05;7.00;;;5.70;;
50309;SDS011;36207;51.850;21.698;2023-05-16T11:56:34;6.50;;;5.50;;
50309;SDS011;36207;51.850;21.698;2023-05-16T11:59:01;7.00;;;5.80;;
50309;SDS011;36207;51.850;21.698;2023-05-16T12:01:32;7.80;;;5.40;;
50309;SDS011;36207;51.850;21.698;2023-05-16T12:04:00;14.00;;;5.40;;
50309;SDS011;36207;51.850;21.698;2023-05-16T12:06:26;5.70;;;5.10;;
50309;SDS011;36207;51.850;21.698;2023-05-16T12:08:53;7.60;;;5.10;;
50309;SDS011;36207;51.850;21.698;2023-05-16T12:11:21;7.00;;;5.30;;
50309;SDS011;36207;51.850;21.698;2023-05-16T12:13:48;9.30;;;4.90;;
50309;SDS011;36207;51.850;21.698;2023-05-16T12:16:14;8.00;;;4.90;;
50309;SDS011;36207;51.850;21.698;2023-05-16T12:18:41;5.70;;;4.70;;
50309;SDS011;36207;51.850;21.698;2023-05-16T12:21:07;4.80;;;4.30;;
50309;SDS011;36207;51.850;21.698;2023-05-16T12:23:34;6.10;;;4.60;;
50309;SDS011;36207;51.850;21.698;2023-05-16T12:26:01;6.40;;;4.50;;
50309;SDS011;36207;51.850;21.698;2023-05-16T12:28:32;5.80;;;4.40;;
50309;SDS011;36207;51.850;21.698;2023-05-16T12:30:59;5.00;;;4.30;;
50309;SDS011;36207;51.850;21.698;2023-05-16T12:33:26;6.20;;;4.60;;
50309;SDS011;36207;51.850;21.698;2023-05-16T12:35:52;4.70;;;4.00;;
50309;SDS011;36207;51.850;21.698;2023-05-16T12:38:19;4.50;;;3.90;;
50309;SDS011;36207;51.850;21.698;2023-05-16T12:40:48;5.30;;;4.10;;
50309;SDS011;36207;51.850;21.698;2023-05-16T12:43:18;4.90;;;4.00;;
50309;SDS011;36207;51.850;21.698;2023-05-16T12:45:52;5.20;;;4.20;;
50309;SDS011;36207;51.850;21.698;2023-05-16T12:48:19;4.20;;;3.70;;
50309;SDS011;36207;51.850;21.698;2023-05-16T12:50:46;4.70;;;4.10;;
50309;SDS011;36207;51.850;21.698;2023-05-16T12:53:13;9.60;;;4.40;;
50309;SDS011;36207;51.850;21.698;2023-05-16T12:55:41;4.50;;;3.80;;
50309;SDS011;36207;51.850;21.698;2023-05-16T12:58:18;7.50;;;4.20;;
50309;SDS011;36207;51.850;21.698;2023-05-16T13:00:44;8.10;;;4.20;;
50309;SDS011;36207;51.850;21.698;2023-05-16T13:03:10;4.60;;;3.90;;
50309;SDS011;36207;51.850;21.698;2023-05-16T13:05:39;4.10;;;3.60;;
50309;SDS011;36207;51.850;21.698;2023-05-16T13:08:08;6.20;;;3.80;;
50309;SDS011;36207;51.850;21.698;2023-05-16T13:10:34;4.30;;;3.60;;
50309;SDS011;36207;51.850;21.698;2023-05-16T13:13:01;5.70;;;3.80;;
50309;SDS011;36207;51.850;21.698;2023-05-16T13:15:27;3.80;;;3.40;;
50309;SDS011;36207;51.850;21.698;2023-05-16T13:17:53;4.60;;;3.50;;
50309;SDS011;36207;51.850;21.698;2023-05-16T13:20:20;3.90;;;3.20;;
50309;SDS011;36207;51.850;21.698;2023-05-16T13:22:46;3.20;;;2.80;;
50309;SDS011;36207;51.850;21.698;2023-05-16T13:25:12;4.40;;;3.50;;
50309;SDS011;36207;51.850;21.698;2023-05-16T13:27:38;4.70;;;3.40;;
50309;SDS011;36207;51.850;21.698;2023-05-16T13:30:05;4.00;;;3.20;;
50309;SDS011;36207;51.850;21.698;2023-05-16T13:32:32;5.20;;;3.30;;
50309;SDS011;36207;51.850;21.698;2023-05-16T13:34:58;3.50;;;3.20;;
50309;SDS011;36207;51.850;21.698;2023-05-16T13:37:24;3.40;;;3.10;;
50309;SDS011;36207;51.850;21.698;2023-05-16T13:39:50;3.20;;;2.90;;
50309;SDS011;36207;51.850;21.698;2023-05-16T13:42:19;6.10;;;3.40;;
50309;SDS011;36207;51.850;21.698;2023-05-16T13:44:45;6.50;;;3.30;;
50309;SDS011;36207;51.850;21.698;2023-05-16T13:47:12;4.80;;;3.10;;
50309;SDS011;36207;51.850;21.698;2023-05-16T13:49:37;5.60;;;3.10;;
50309;SDS011;36207;51.850;21.698;2023-05-16T13:52:04;2.90;;;2.70;;
50309;SDS011;36207;51.850;21.698;2023-05-16T13:54:31;8.00;;;3.40;;
50309;SDS011;36207;51.850;21.698;2023-05-16T13:56:58;3.20;;;2.90;;
50309;SDS011;36207;51.850;21.698;2023-05-16T13:59:24;3.70;;;3.30;;
50309;SDS011;36207;51.850;21.698;2023-05-16T14:01:50;2.80;;;2.50;;
50309;SDS011;36207;51.850;21.698;2023-05-16T14:04:19;3.20;;;2.80;;
50309;SDS011;36207;51.850;21.698;2023-05-16T14:06:54;6.90;;;2.70;;
50309;SDS011;36207;51.850;21.698;2023-05-16T14:09:21;4.80;;;3.00;;
50309;SDS011;36207;51.850;21.698;2023-05-16T14:11:47;4.10;;;2.70;;
50309;SDS011;36207;51.850;21.698;2023-05-16T14:14:13;3.00;;;2.50;;
50309;SDS011;36207;51.850;21.698;2023-05-16T14:16:39;2.60;;;2.40;;
50309;SDS011;36207;51.850;21.698;2023-05-16T14:19:10;2.70;;;2.30;;
50309;SDS011;36207;51.850;21.698;2023-05-16T14:21:37;4.60;;;2.80;;
50309;SDS011;36207;51.850;21.698;2023-05-16T14:24:03;2.60;;;2.40;;
50309;SDS011;36207;51.850;21.698;2023-05-16T14:26:33;2.60;;;2.40;;
50309;SDS011;36207;51.850;21.698;2023-05-16T14:28:59;3.00;;;2.60;;
50309;SDS011;36207;51.850;21.698;2023-05-16T14:31:25;4.70;;;2.70;;
50309;SDS011;36207;51.850;21.698;2023-05-16T14:33:51;3.90;;;2.40;;
50309;SDS011;36207;51.850;21.698;2023-05-16T14:36:17;3.00;;;2.50;;
50309;SDS011;36207;51.850;21.698;2023-05-16T14:38:43;2.60;;;2.40;;
50309;SDS011;36207;51.850;21.698;2023-05-16T14:41:08;3.40;;;2.00;;
50309;SDS011;36207;51.850;21.698;2023-05-16T14:43:35;2.80;;;2.50;;
50309;SDS011;36207;51.850;21.698;2023-05-16T14:46:02;3.30;;;2.20;;
50309;SDS011;36207;51.850;21.698;2023-05-16T14:48:28;2.60;;;2.20;;
50309;SDS011;36207;51.850;21.698;2023-05-16T14:50:55;3.10;;;2.50;;
50309;SDS011;36207;51.850;21.698;2023-05-16T14:53:21;4.60;;;2.80;;
50309;SDS011;36207;51.850;21.698;2023-05-16T14:55:47;2.60;;;2.40;;
50309;SDS011;36207;51.850;21.698;2023-05-16T14:58:16;3.30;;;2.60;;
50309;SDS011;36207;51.850;21.698;2023-05-16T15:00:42;4.50;;;2.50;;
50309;SDS011;36207;51.850;21.698;2023-05-16T15:03:11;2.50;;;2.30;;